Rocky Ridge, MD (21778)

2:01 PM EDT on September 05, 2015 (GMT -0400)
Bought The Farm | | Change Station
CLOSE
Current Station
Personal Weather Station
Location: Thurmont, MD
Elevation: 453 ft
Nearby Weather Stations

Elev 453 ft 39.61 °N, 77.38 °W | Updated 8 seconds ago

Overcast
Overcast
80.3 °F
Feels Like 82 °F
N
0.0
Wind Variable Wind from North
Gusts 1.0 mph

Today
High -- | Low -- °F
--% Chance of Precip.
Yesterday
High -- | Low -- °F
Precip. -- in
6:40 AM 7:34 PM
Waning Gibbous, 46% visible
Pressure 30.20 in
Visibility 10.0 miles
Clouds Mostly Cloudy 3200 ft
Heat Index 82 °F
Dew Point 66 °F
Humidity 62%
Rainfall 0.01 in
Snow Depth Not available.
UV 5 out of 12
Pollen 9.40 out of 12
Air Quality Not available.
Flu Activity Not available.
METAR KRYT 051753Z AUTO 01005KT 10SM BKN032 26/17 A3024 RMK AO2 SLP227 60000 T02560172 10256 20206 57012 $
Pressure 30.20 in
Visibility 10.0 miles
Clouds Mostly Cloudy 3200 ft
Heat Index 82 °F
Dew Point 66 °F
Humidity 62%
Rainfall 0.01 in
Snow Depth Not available.
UV 5 out of 12
Pollen 9.40 out of 12
Air Quality Not available.
Flu Activity Not available.
METAR KRYT 051753Z AUTO 01005KT 10SM BKN032 26/17 A3024 RMK AO2 SLP227 60000 T02560172 10256 20206 57012 $

10-Day Weather Forecast

×

Almanac

Astronomy

Sep. 05, 2015 Rise Set
Actual Time
Civil Twilight
Nautical Twilight
Astronomical Twilight
Moon
Length of Visible Light
Length of Day
Tomorrow will be .
, % of the Moon is Illuminated

Today's Extremes

State Highs State Lows

Community

WunderPhotos

Upload Photos

1,852,510 photos uploaded!

WunderBlogs® & News

Nearby

Air Quality

  Air Quality AQ Index Pollutant
Not available.

Snow Depth

Station Depth Elevation

Earthquake Activity

City Distance Mag. Time & Date
Minimum magnitude displayed is 2.5.

Coastal Water Temperatures

Place Temperature

Stations

Nearby Weather Stations

Station Location Temp. Windchill Dew Point Humidity Wind Precip. Elev Updated Type